<?xml version="1.0" encoding="UTF-8" standalone="no" ?>
<gpx xmlns="http://www.topografix.com/GPX/1/1" xmlns:xsi="http://www.w3.org/2001/XMLSchema-instance" xsi:schemaLocation="http://www.topografix.com/GPX/1/1 http://www.topografix.com/GPX/1/1/gpx.xsd" version="1.1" creator="VisuGPX - https://www.visugpx.com">
  <metadata>
    <name>Suède</name>
  </metadata>
  <trk>
    <name><![CDATA[Tour d'Europe: étape 086]]></name>
    <trkseg>
      <trkpt lat="66.4314" lon="20.59459">
        <ele>157.067796</ele>
        <time>2020-09-22T07:44:40.357Z</time>
      </trkpt>
      <trkpt lat="66.43119" lon="20.59968">
        <ele>153.460071</ele>
        <time>2020-09-22T07:45:40.363Z</time>
      </trkpt>
      <trkpt lat="66.4307" lon="20.60438">
        <ele>152.393981</ele>
        <time>2020-09-22T07:46:34.404Z</time>
      </trkpt>
      <trkpt lat="66.42999" lon="20.61057">
        <ele>140.478696</ele>
        <time>2020-09-22T07:47:11.337Z</time>
      </trkpt>
      <trkpt lat="66.42959" lon="20.6165">
        <ele>133.196856</ele>
        <time>2020-09-22T07:47:41.380Z</time>
      </trkpt>
      <trkpt lat="66.42906" lon="20.62184">
        <ele>134.175585</ele>
        <time>2020-09-22T07:48:21.345Z</time>
      </trkpt>
      <trkpt lat="66.42843" lon="20.62645">
        <ele>133.348093</ele>
        <time>2020-09-22T07:48:59.356Z</time>
      </trkpt>
      <trkpt lat="66.4265" lon="20.62954">
        <ele>130.462503</ele>
        <time>2020-09-22T07:49:39.368Z</time>
      </trkpt>
      <trkpt lat="66.42466" lon="20.63245">
        <ele>132.439853</ele>
        <time>2020-09-22T07:50:19.364Z</time>
      </trkpt>
      <trkpt lat="66.42266" lon="20.63391">
        <ele>135.104664</ele>
        <time>2020-09-22T07:51:18.352Z</time>
      </trkpt>
      <trkpt lat="66.42119" lon="20.6371">
        <ele>139.215365</ele>
        <time>2020-09-22T07:52:21.346Z</time>
      </trkpt>
      <trkpt lat="66.4191" lon="20.64174">
        <ele>132.003073</ele>
        <time>2020-09-22T07:52:59.335Z</time>
      </trkpt>
      <trkpt lat="66.41734" lon="20.64549">
        <ele>131.639875</ele>
        <time>2020-09-22T07:53:42.360Z</time>
      </trkpt>
      <trkpt lat="66.4159" lon="20.64899">
        <ele>136.356171</ele>
        <time>2020-09-22T07:54:42.369Z</time>
      </trkpt>
      <trkpt lat="66.41438" lon="20.65299">
        <ele>137.818776</ele>
        <time>2020-09-22T07:55:41.357Z</time>
      </trkpt>
      <trkpt lat="66.41312" lon="20.65664">
        <ele>139.505317</ele>
        <time>2020-09-22T07:56:21.362Z</time>
      </trkpt>
      <trkpt lat="66.4117" lon="20.66073">
        <ele>139.6833</ele>
        <time>2020-09-22T07:57:01.380Z</time>
      </trkpt>
      <trkpt lat="66.41032" lon="20.66494">
        <ele>144.45939</ele>
        <time>2020-09-22T07:57:51.348Z</time>
      </trkpt>
      <trkpt lat="66.40888" lon="20.6695">
        <ele>147.647508</ele>
        <time>2020-09-22T07:58:46.336Z</time>
      </trkpt>
      <trkpt lat="66.40769" lon="20.67358">
        <ele>141.870126</ele>
        <time>2020-09-22T07:59:24.355Z</time>
      </trkpt>
      <trkpt lat="66.40636" lon="20.67818">
        <ele>137.25018</ele>
        <time>2020-09-22T08:00:04.345Z</time>
      </trkpt>
      <trkpt lat="66.40514" lon="20.68209">
        <ele>139.655065</ele>
        <time>2020-09-22T08:00:44.357Z</time>
      </trkpt>
      <trkpt lat="66.40365" lon="20.68574">
        <ele>145.66715</ele>
        <time>2020-09-22T08:01:30.335Z</time>
      </trkpt>
      <trkpt lat="66.4019" lon="20.68896">
        <ele>145.648626</ele>
        <time>2020-09-22T08:02:18.393Z</time>
      </trkpt>
      <trkpt lat="66.40023" lon="20.69113">
        <ele>144.748936</ele>
        <time>2020-09-22T08:02:57.341Z</time>
      </trkpt>
      <trkpt lat="66.39828" lon="20.69288">
        <ele>149.839856</ele>
        <time>2020-09-22T08:03:57.352Z</time>
      </trkpt>
      <trkpt lat="66.39617" lon="20.69397">
        <ele>149.464091</ele>
        <time>2020-09-22T08:04:57.373Z</time>
      </trkpt>
      <trkpt lat="66.39391" lon="20.69507">
        <ele>143.236819</ele>
        <time>2020-09-22T08:05:50.371Z</time>
      </trkpt>
      <trkpt lat="66.39207" lon="20.6964">
        <ele>142.825026</ele>
        <time>2020-09-22T08:06:31.363Z</time>
      </trkpt>
      <trkpt lat="66.39007" lon="20.69855">
        <ele>143.070692</ele>
        <time>2020-09-22T08:07:11.368Z</time>
      </trkpt>
      <trkpt lat="66.38768" lon="20.70169">
        <ele>135.632548</ele>
        <time>2020-09-22T08:07:51.381Z</time>
      </trkpt>
      <trkpt lat="66.38544" lon="20.70444">
        <ele>134.938154</ele>
        <time>2020-09-22T08:08:31.391Z</time>
      </trkpt>
      <trkpt lat="66.38361" lon="20.70598">
        <ele>136.411489</ele>
        <time>2020-09-22T08:09:09.373Z</time>
      </trkpt>
      <trkpt lat="66.38143" lon="20.70738">
        <ele>132.325457</ele>
        <time>2020-09-22T08:09:49.361Z</time>
      </trkpt>
      <trkpt lat="66.37888" lon="20.70894">
        <ele>126.899539</ele>
        <time>2020-09-22T08:10:29.350Z</time>
      </trkpt>
      <trkpt lat="66.37649" lon="20.7107">
        <ele>123.169216</ele>
        <time>2020-09-22T08:11:09.344Z</time>
      </trkpt>
      <trkpt lat="66.37409" lon="20.71412">
        <ele>122.428708</ele>
        <time>2020-09-22T08:11:49.362Z</time>
      </trkpt>
      <trkpt lat="66.37246" lon="20.71746">
        <ele>127.633546</ele>
        <time>2020-09-22T08:12:41.369Z</time>
      </trkpt>
      <trkpt lat="66.37063" lon="20.72085">
        <ele>127.275814</ele>
        <time>2020-09-22T08:13:37.412Z</time>
      </trkpt>
      <trkpt lat="66.36867" lon="20.72341">
        <ele>122.0285</ele>
        <time>2020-09-22T08:14:17.333Z</time>
      </trkpt>
      <trkpt lat="66.3668" lon="20.72507">
        <ele>122.740827</ele>
        <time>2020-09-22T08:14:58.393Z</time>
      </trkpt>
      <trkpt lat="66.3647" lon="20.72605">
        <ele>121.700452</ele>
        <time>2020-09-22T08:15:36.375Z</time>
      </trkpt>
      <trkpt lat="66.36203" lon="20.72627">
        <ele>110.764508</ele>
        <time>2020-09-22T08:16:09.386Z</time>
      </trkpt>
      <trkpt lat="66.35938" lon="20.72616">
        <ele>104.765803</ele>
        <time>2020-09-22T08:16:45.395Z</time>
      </trkpt>
      <trkpt lat="66.3571" lon="20.7268">
        <ele>104.961291</ele>
        <time>2020-09-22T08:17:25.350Z</time>
      </trkpt>
      <trkpt lat="66.35525" lon="20.72737">
        <ele>106.950077</ele>
        <time>2020-09-22T08:18:03.351Z</time>
      </trkpt>
      <trkpt lat="66.35294" lon="20.72883">
        <ele>109.232285</ele>
        <time>2020-09-22T08:18:59.352Z</time>
      </trkpt>
      <trkpt lat="66.35106" lon="20.73077">
        <ele>105.783899</ele>
        <time>2020-09-22T08:19:43.355Z</time>
      </trkpt>
      <trkpt lat="66.34923" lon="20.73283">
        <ele>103.061768</ele>
        <time>2020-09-22T08:20:23.368Z</time>
      </trkpt>
      <trkpt lat="66.34749" lon="20.73481">
        <ele>102.91428</ele>
        <time>2020-09-22T08:21:01.370Z</time>
      </trkpt>
      <trkpt lat="66.34553" lon="20.73696">
        <ele>100.853714</ele>
        <time>2020-09-22T08:21:41.381Z</time>
      </trkpt>
      <trkpt lat="66.3435" lon="20.73933">
        <ele>100.917379</ele>
        <time>2020-09-22T08:22:21.352Z</time>
      </trkpt>
      <trkpt lat="66.34113" lon="20.7423">
        <ele>98.468399</ele>
        <time>2020-09-22T08:23:01.380Z</time>
      </trkpt>
      <trkpt lat="66.33889" lon="20.74627">
        <ele>98.51272</ele>
        <time>2020-09-22T08:23:41.383Z</time>
      </trkpt>
      <trkpt lat="66.33732" lon="20.74987">
        <ele>94.383901</ele>
        <time>2020-09-22T08:24:19.344Z</time>
      </trkpt>
      <trkpt lat="66.33591" lon="20.754">
        <ele>92.4492</ele>
        <time>2020-09-22T08:24:59.381Z</time>
      </trkpt>
      <trkpt lat="66.33442" lon="20.75859">
        <ele>88.958156</ele>
        <time>2020-09-22T08:25:39.384Z</time>
      </trkpt>
      <trkpt lat="66.33288" lon="20.76297">
        <ele>89.627199</ele>
        <time>2020-09-22T08:26:19.344Z</time>
      </trkpt>
      <trkpt lat="66.33142" lon="20.76621">
        <ele>91.134421</ele>
        <time>2020-09-22T08:26:57.378Z</time>
      </trkpt>
      <trkpt lat="66.32978" lon="20.76913">
        <ele>92.504573</ele>
        <time>2020-09-22T08:27:39.355Z</time>
      </trkpt>
      <trkpt lat="66.328" lon="20.77155">
        <ele>91.730995</ele>
        <time>2020-09-22T08:28:20.339Z</time>
      </trkpt>
      <trkpt lat="66.32611" lon="20.77346">
        <ele>89.841261</ele>
        <time>2020-09-22T08:29:00.352Z</time>
      </trkpt>
      <trkpt lat="66.32411" lon="20.77536">
        <ele>89.79707</ele>
        <time>2020-09-22T08:29:49.345Z</time>
      </trkpt>
      <trkpt lat="66.32199" lon="20.77815">
        <ele>96.770537</ele>
        <time>2020-09-22T08:30:47.353Z</time>
      </trkpt>
      <trkpt lat="66.32033" lon="20.78114">
        <ele>96.657614</ele>
        <time>2020-09-22T08:31:31.355Z</time>
      </trkpt>
      <trkpt lat="66.3186" lon="20.78512">
        <ele>93.281142</ele>
        <time>2020-09-22T08:32:12.396Z</time>
      </trkpt>
      <trkpt lat="66.31648" lon="20.78954">
        <ele>89.444699</ele>
        <time>2020-09-22T08:32:52.396Z</time>
      </trkpt>
      <trkpt lat="66.31458" lon="20.79269">
        <ele>87.055214</ele>
        <time>2020-09-22T08:33:30.341Z</time>
      </trkpt>
      <trkpt lat="66.31275" lon="20.79508">
        <ele>85.857419</ele>
        <time>2020-09-22T08:34:10.366Z</time>
      </trkpt>
      <trkpt lat="66.31085" lon="20.79703">
        <ele>85.916525</ele>
        <time>2020-09-22T08:34:55.359Z</time>
      </trkpt>
      <trkpt lat="66.3085" lon="20.79882">
        <ele>87.82143</ele>
        <time>2020-09-22T08:35:53.359Z</time>
      </trkpt>
      <trkpt lat="66.30657" lon="20.80012">
        <ele>95.109425</ele>
        <time>2020-09-22T08:36:50.395Z</time>
      </trkpt>
      <trkpt lat="66.30464" lon="20.80161">
        <ele>101.587111</ele>
        <time>2020-09-22T08:37:51.355Z</time>
      </trkpt>
      <trkpt lat="66.30253" lon="20.80411">
        <ele>99.957323</ele>
        <time>2020-09-22T08:38:50.358Z</time>
      </trkpt>
      <trkpt lat="66.30077" lon="20.80681">
        <ele>97.598613</ele>
        <time>2020-09-22T08:39:34.392Z</time>
      </trkpt>
      <trkpt lat="66.29913" lon="20.80907">
        <ele>97.123462</ele>
        <time>2020-09-22T08:40:12.368Z</time>
      </trkpt>
      <trkpt lat="66.29727" lon="20.81118">
        <ele>100.547127</ele>
        <time>2020-09-22T08:40:56.382Z</time>
      </trkpt>
      <trkpt lat="66.29515" lon="20.81304">
        <ele>96.186898</ele>
        <time>2020-09-22T08:41:38.360Z</time>
      </trkpt>
      <trkpt lat="66.29283" lon="20.81441">
        <ele>92.085512</ele>
        <time>2020-09-22T08:42:18.348Z</time>
      </trkpt>
      <trkpt lat="66.29055" lon="20.81547">
        <ele>95.225881</ele>
        <time>2020-09-22T08:43:10.360Z</time>
      </trkpt>
      <trkpt lat="66.28852" lon="20.81637">
        <ele>91.699215</ele>
        <time>2020-09-22T08:43:50.357Z</time>
      </trkpt>
      <trkpt lat="66.2862" lon="20.81754">
        <ele>85.908397</ele>
        <time>2020-09-22T08:44:30.361Z</time>
      </trkpt>
      <trkpt lat="66.28398" lon="20.81931">
        <ele>85.157124</ele>
        <time>2020-09-22T08:45:10.389Z</time>
      </trkpt>
      <trkpt lat="66.28173" lon="20.82091">
        <ele>85.452075</ele>
        <time>2020-09-22T08:45:50.396Z</time>
      </trkpt>
      <trkpt lat="66.2797" lon="20.82183">
        <ele>87.734411</ele>
        <time>2020-09-22T08:46:39.358Z</time>
      </trkpt>
      <trkpt lat="66.27765" lon="20.82265">
        <ele>91.93359</ele>
        <time>2020-09-22T08:47:42.357Z</time>
      </trkpt>
      <trkpt lat="66.27551" lon="20.82413">
        <ele>90.635417</ele>
        <time>2020-09-22T08:48:42.381Z</time>
      </trkpt>
      <trkpt lat="66.27335" lon="20.8264">
        <ele>90.187181</ele>
        <time>2020-09-22T08:49:42.362Z</time>
      </trkpt>
      <trkpt lat="66.2713" lon="20.82859">
        <ele>93.077668</ele>
        <time>2020-09-22T08:50:39.365Z</time>
      </trkpt>
      <trkpt lat="66.26908" lon="20.83041">
        <ele>95.515557</ele>
        <time>2020-09-22T08:51:39.409Z</time>
      </trkpt>
      <trkpt lat="66.2669" lon="20.83198">
        <ele>91.30981</ele>
        <time>2020-09-22T08:52:23.373Z</time>
      </trkpt>
      <trkpt lat="66.26446" lon="20.83391">
        <ele>82.766301</ele>
        <time>2020-09-22T08:53:03.367Z</time>
      </trkpt>
      <trkpt lat="66.26244" lon="20.83606">
        <ele>78.127274</ele>
        <time>2020-09-22T08:53:41.374Z</time>
      </trkpt>
      <trkpt lat="66.26043" lon="20.83862">
        <ele>85.801571</ele>
        <time>2020-09-22T08:54:38.393Z</time>
      </trkpt>
      <trkpt lat="66.25866" lon="20.8413">
        <ele>86.749709</ele>
        <time>2020-09-22T08:55:24.385Z</time>
      </trkpt>
      <trkpt lat="66.25695" lon="20.84395">
        <ele>87.798729</ele>
        <time>2020-09-22T08:56:04.363Z</time>
      </trkpt>
      <trkpt lat="66.25522" lon="20.8466">
        <ele>89.205036</ele>
        <time>2020-09-22T08:56:44.357Z</time>
      </trkpt>
      <trkpt lat="66.2536" lon="20.84908">
        <ele>86.217271</ele>
        <time>2020-09-22T08:57:22.357Z</time>
      </trkpt>
      <trkpt lat="66.25172" lon="20.85195">
        <ele>85.493972</ele>
        <time>2020-09-22T08:58:11.357Z</time>
      </trkpt>
      <trkpt lat="66.25001" lon="20.85422">
        <ele>87.435698</ele>
        <time>2020-09-22T08:58:53.381Z</time>
      </trkpt>
      <trkpt lat="66.24832" lon="20.85643">
        <ele>85.925026</ele>
        <time>2020-09-22T08:59:33.356Z</time>
      </trkpt>
      <trkpt lat="66.24658" lon="20.85867">
        <ele>85.971038</ele>
        <time>2020-09-22T09:00:15.354Z</time>
      </trkpt>
      <trkpt lat="66.24475" lon="20.86091">
        <ele>83.537773</ele>
        <time>2020-09-22T09:00:58.375Z</time>
      </trkpt>
      <trkpt lat="66.24284" lon="20.8625">
        <ele>81.817339</ele>
        <time>2020-09-22T09:01:42.355Z</time>
      </trkpt>
      <trkpt lat="66.24083" lon="20.86343">
        <ele>84.529077</ele>
        <time>2020-09-22T09:02:27.357Z</time>
      </trkpt>
      <trkpt lat="66.23884" lon="20.86357">
        <ele>86.352353</ele>
        <time>2020-09-22T09:03:11.401Z</time>
      </trkpt>
      <trkpt lat="66.23652" lon="20.86406">
        <ele>92.019623</ele>
        <time>2020-09-22T09:04:11.366Z</time>
      </trkpt>
      <trkpt lat="66.23455" lon="20.86583">
        <ele>87.870455</ele>
        <time>2020-09-22T09:04:59.356Z</time>
      </trkpt>
      <trkpt lat="66.23337" lon="20.86841">
        <ele>86.782464</ele>
        <time>2020-09-22T09:07:47.398Z</time>
      </trkpt>
      <trkpt lat="66.23211" lon="20.86456">
        <ele>93.169376</ele>
        <time>2020-09-22T09:09:13.376Z</time>
      </trkpt>
      <trkpt lat="66.23103" lon="20.86081">
        <ele>101.678242</ele>
        <time>2020-09-22T09:10:48.366Z</time>
      </trkpt>
      <trkpt lat="66.22995" lon="20.85632">
        <ele>104.520181</ele>
        <time>2020-09-22T09:12:00.349Z</time>
      </trkpt>
      <trkpt lat="66.22953" lon="20.85111">
        <ele>108.654921</ele>
        <time>2020-09-22T09:12:55.413Z</time>
      </trkpt>
      <trkpt lat="66.22931" lon="20.84564">
        <ele>109.176757</ele>
        <time>2020-09-22T09:13:42.376Z</time>
      </trkpt>
      <trkpt lat="66.22749" lon="20.84443">
        <ele>118.379112</ele>
        <time>2020-09-22T09:15:03.365Z</time>
      </trkpt>
      <trkpt lat="66.22556" lon="20.84417">
        <ele>129.365052</ele>
        <time>2020-09-22T09:17:02.389Z</time>
      </trkpt>
      <trkpt lat="66.22359" lon="20.84321">
        <ele>126.399997</ele>
        <time>2020-09-22T09:18:26.366Z</time>
      </trkpt>
      <trkpt lat="66.22115" lon="20.84576">
        <ele>111.211527</ele>
        <time>2020-09-22T09:19:07.393Z</time>
      </trkpt>
      <trkpt lat="66.219" lon="20.84655">
        <ele>98.432778</ele>
        <time>2020-09-22T09:19:33.393Z</time>
      </trkpt>
      <trkpt lat="66.21674" lon="20.84673">
        <ele>89.387061</ele>
        <time>2020-09-22T09:20:23.395Z</time>
      </trkpt>
      <trkpt lat="66.21474" lon="20.84447">
        <ele>83.659169</ele>
        <time>2020-09-22T09:21:03.362Z</time>
      </trkpt>
      <trkpt lat="66.21303" lon="20.84136">
        <ele>77.788221</ele>
        <time>2020-09-22T09:21:43.369Z</time>
      </trkpt>
      <trkpt lat="66.21076" lon="20.83984">
        <ele>84.835274</ele>
        <time>2020-09-22T09:22:42.376Z</time>
      </trkpt>
      <trkpt lat="66.20883" lon="20.84015">
        <ele>91.447952</ele>
        <time>2020-09-22T09:23:29.376Z</time>
      </trkpt>
      <trkpt lat="66.20682" lon="20.84046">
        <ele>95.258969</ele>
        <time>2020-09-22T09:24:31.376Z</time>
      </trkpt>
      <trkpt lat="66.20466" lon="20.84077">
        <ele>94.986514</ele>
        <time>2020-09-22T09:25:21.355Z</time>
      </trkpt>
      <trkpt lat="66.2026" lon="20.84055">
        <ele>95.225403</ele>
        <time>2020-09-22T09:26:05.381Z</time>
      </trkpt>
      <trkpt lat="66.20063" lon="20.83986">
        <ele>100.051993</ele>
        <time>2020-09-22T09:26:52.359Z</time>
      </trkpt>
      <trkpt lat="66.19827" lon="20.84063">
        <ele>95.12396</ele>
        <time>2020-09-22T09:27:42.386Z</time>
      </trkpt>
      <trkpt lat="66.19626" lon="20.84264">
        <ele>90.616462</ele>
        <time>2020-09-22T09:28:31.373Z</time>
      </trkpt>
      <trkpt lat="66.19416" lon="20.84338">
        <ele>96.652901</ele>
        <time>2020-09-22T09:29:19.372Z</time>
      </trkpt>
      <trkpt lat="66.19208" lon="20.84398">
        <ele>96.783443</ele>
        <time>2020-09-22T09:30:06.370Z</time>
      </trkpt>
      <trkpt lat="66.18981" lon="20.8447">
        <ele>99.850276</ele>
        <time>2020-09-22T09:31:06.379Z</time>
      </trkpt>
      <trkpt lat="66.18758" lon="20.84533">
        <ele>98.688624</ele>
        <time>2020-09-22T09:31:54.371Z</time>
      </trkpt>
      <trkpt lat="66.18533" lon="20.84602">
        <ele>98.479169</ele>
        <time>2020-09-22T09:32:53.366Z</time>
      </trkpt>
      <trkpt lat="66.18307" lon="20.84666">
        <ele>101.387401</ele>
        <time>2020-09-22T09:33:49.372Z</time>
      </trkpt>
      <trkpt lat="66.18099" lon="20.84879">
        <ele>100.230784</ele>
        <time>2020-09-22T09:34:56.421Z</time>
      </trkpt>
      <trkpt lat="66.17927" lon="20.85162">
        <ele>105.386246</ele>
        <time>2020-09-22T09:36:14.386Z</time>
      </trkpt>
      <trkpt lat="66.17706" lon="20.85511">
        <ele>97.057425</ele>
        <time>2020-09-22T09:53:59.367Z</time>
      </trkpt>
      <trkpt lat="66.17526" lon="20.85781">
        <ele>93.659094</ele>
        <time>2020-09-22T09:55:07.387Z</time>
      </trkpt>
      <trkpt lat="66.17318" lon="20.85998">
        <ele>85.799021</ele>
        <time>2020-09-22T09:55:38.414Z</time>
      </trkpt>
      <trkpt lat="66.17099" lon="20.86206">
        <ele>77.144942</ele>
        <time>2020-09-22T09:56:03.365Z</time>
      </trkpt>
      <trkpt lat="66.16893" lon="20.86355">
        <ele>74.278629</ele>
        <time>2020-09-22T09:56:48.402Z</time>
      </trkpt>
      <trkpt lat="66.16632" lon="20.86418">
        <ele>71.149094</ele>
        <time>2020-09-22T09:57:29.373Z</time>
      </trkpt>
      <trkpt lat="66.16441" lon="20.86309">
        <ele>66.178407</ele>
        <time>2020-09-22T09:57:50.374Z</time>
      </trkpt>
      <trkpt lat="66.16214" lon="20.86191">
        <ele>63.501262</ele>
        <time>2020-09-22T09:58:34.363Z</time>
      </trkpt>
      <trkpt lat="66.16007" lon="20.86158">
        <ele>64.160694</ele>
        <time>2020-09-22T09:59:19.366Z</time>
      </trkpt>
      <trkpt lat="66.15777" lon="20.86123">
        <ele>71.349398</ele>
        <time>2020-09-22T10:00:15.372Z</time>
      </trkpt>
      <trkpt lat="66.15593" lon="20.85983">
        <ele>79.617102</ele>
        <time>2020-09-22T10:01:23.370Z</time>
      </trkpt>
      <trkpt lat="66.15393" lon="20.85862">
        <ele>83.975742</ele>
        <time>2020-09-22T10:02:36.419Z</time>
      </trkpt>
      <trkpt lat="66.15177" lon="20.85796">
        <ele>75.340133</ele>
        <time>2020-09-22T10:03:39.392Z</time>
      </trkpt>
      <trkpt lat="66.14965" lon="20.85951">
        <ele>76.25791</ele>
        <time>2020-09-22T10:04:36.415Z</time>
      </trkpt>
      <trkpt lat="66.14745" lon="20.8617">
        <ele>66.788228</ele>
        <time>2020-09-22T10:05:16.385Z</time>
      </trkpt>
      <trkpt lat="66.14562" lon="20.86376">
        <ele>65.30853</ele>
        <time>2020-09-22T10:05:54.376Z</time>
      </trkpt>
      <trkpt lat="66.14388" lon="20.86701">
        <ele>66.954286</ele>
        <time>2020-09-22T10:06:46.445Z</time>
      </trkpt>
      <trkpt lat="66.14171" lon="20.86898">
        <ele>67.394623</ele>
        <time>2020-09-22T10:07:33.373Z</time>
      </trkpt>
      <trkpt lat="66.13953" lon="20.87038">
        <ele>65.025061</ele>
        <time>2020-09-22T10:08:17.382Z</time>
      </trkpt>
      <trkpt lat="66.13737" lon="20.87183">
        <ele>74.737688</ele>
        <time>2020-09-22T10:09:09.398Z</time>
      </trkpt>
      <trkpt lat="66.13481" lon="20.87197">
        <ele>71.672187</ele>
        <time>2020-09-22T10:09:56.402Z</time>
      </trkpt>
      <trkpt lat="66.13285" lon="20.87228">
        <ele>70.688813</ele>
        <time>2020-09-22T10:10:37.389Z</time>
      </trkpt>
      <trkpt lat="66.13089" lon="20.87377">
        <ele>74.329401</ele>
        <time>2020-09-22T10:11:22.388Z</time>
      </trkpt>
      <trkpt lat="66.12899" lon="20.87529">
        <ele>82.382347</ele>
        <time>2020-09-22T10:12:48.379Z</time>
      </trkpt>
      <trkpt lat="66.12697" lon="20.87604">
        <ele>80.220179</ele>
        <time>2020-09-22T10:13:56.375Z</time>
      </trkpt>
      <trkpt lat="66.12486" lon="20.87704">
        <ele>81.00059</ele>
        <time>2020-09-22T10:14:53.396Z</time>
      </trkpt>
      <trkpt lat="66.12281" lon="20.87788">
        <ele>81.893229</ele>
        <time>2020-09-22T10:15:34.396Z</time>
      </trkpt>
      <trkpt lat="66.12067" lon="20.87857">
        <ele>81.024264</ele>
        <time>2020-09-22T10:16:14.408Z</time>
      </trkpt>
      <trkpt lat="66.11882" lon="20.88152">
        <ele>75.950665</ele>
        <time>2020-09-22T10:17:05.374Z</time>
      </trkpt>
      <trkpt lat="66.11692" lon="20.88395">
        <ele>76.485837</ele>
        <time>2020-09-22T10:18:01.414Z</time>
      </trkpt>
      <trkpt lat="66.11499" lon="20.88637">
        <ele>73.964603</ele>
        <time>2020-09-22T10:18:48.409Z</time>
      </trkpt>
      <trkpt lat="66.11307" lon="20.88878">
        <ele>72.197365</ele>
        <time>2020-09-22T10:19:32.379Z</time>
      </trkpt>
      <trkpt lat="66.11111" lon="20.89119">
        <ele>70.253993</ele>
        <time>2020-09-22T10:20:10.381Z</time>
      </trkpt>
      <trkpt lat="66.10924" lon="20.89356">
        <ele>70.66391</ele>
        <time>2020-09-22T10:20:50.415Z</time>
      </trkpt>
      <trkpt lat="66.10722" lon="20.89511">
        <ele>67.795785</ele>
        <time>2020-09-22T10:21:32.391Z</time>
      </trkpt>
      <trkpt lat="66.10488" lon="20.89456">
        <ele>72.59411</ele>
        <time>2020-09-22T10:22:24.382Z</time>
      </trkpt>
      <trkpt lat="66.10298" lon="20.89413">
        <ele>68.851098</ele>
        <time>2020-09-22T10:23:03.400Z</time>
      </trkpt>
      <trkpt lat="66.10099" lon="20.89368">
        <ele>67.115462</ele>
        <time>2020-09-22T10:23:46.374Z</time>
      </trkpt>
      <trkpt lat="66.0987" lon="20.89302">
        <ele>75.734458</ele>
        <time>2020-09-22T10:24:45.387Z</time>
      </trkpt>
      <trkpt lat="66.09672" lon="20.89257">
        <ele>81.77231</ele>
        <time>2020-09-22T10:26:04.385Z</time>
      </trkpt>
      <trkpt lat="66.0948" lon="20.89203">
        <ele>89.290105</ele>
        <time>2020-09-22T10:27:23.416Z</time>
      </trkpt>
      <trkpt lat="66.09248" lon="20.89148">
        <ele>83.678924</ele>
        <time>2020-09-22T10:28:21.388Z</time>
      </trkpt>
      <trkpt lat="66.09046" lon="20.89217">
        <ele>77.557476</ele>
        <time>2020-09-22T10:29:14.391Z</time>
      </trkpt>
      <trkpt lat="66.08814" lon="20.89406">
        <ele>65.388677</ele>
        <time>2020-09-22T10:29:54.383Z</time>
      </trkpt>
      <trkpt lat="66.08677" lon="20.89835">
        <ele>60.085714</ele>
        <time>2020-09-22T10:30:35.391Z</time>
      </trkpt>
      <trkpt lat="66.08531" lon="20.90193">
        <ele>59.09552</ele>
        <time>2020-09-22T10:31:16.389Z</time>
      </trkpt>
      <trkpt lat="66.08318" lon="20.90156">
        <ele>73.053265</ele>
        <time>2020-09-22T10:32:35.376Z</time>
      </trkpt>
      <trkpt lat="66.08145" lon="20.90418">
        <ele>78.087751</ele>
        <time>2020-09-22T10:33:51.381Z</time>
      </trkpt>
      <trkpt lat="66.08013" lon="20.90844">
        <ele>75.324282</ele>
        <time>2020-09-22T10:34:50.411Z</time>
      </trkpt>
      <trkpt lat="66.07886" lon="20.91275">
        <ele>75.666292</ele>
        <time>2020-09-22T10:35:54.389Z</time>
      </trkpt>
      <trkpt lat="66.07769" lon="20.91693">
        <ele>78.086882</ele>
        <time>2020-09-22T10:37:15.379Z</time>
      </trkpt>
      <trkpt lat="66.07602" lon="20.92077">
        <ele>70.575011</ele>
        <time>2020-09-22T10:38:01.396Z</time>
      </trkpt>
      <trkpt lat="66.074" lon="20.92413">
        <ele>72.831312</ele>
        <time>2020-09-22T10:38:56.399Z</time>
      </trkpt>
      <trkpt lat="66.07279" lon="20.92771">
        <ele>81.461263</ele>
        <time>2020-09-22T10:39:58.414Z</time>
      </trkpt>
      <trkpt lat="66.0715" lon="20.9317">
        <ele>97.601591</ele>
        <time>2020-09-22T10:41:17.409Z</time>
      </trkpt>
      <trkpt lat="66.07012" lon="20.93564">
        <ele>97.809548</ele>
        <time>2020-09-22T10:42:36.413Z</time>
      </trkpt>
      <trkpt lat="66.06862" lon="20.93898">
        <ele>89.403385</ele>
        <time>2020-09-22T10:43:36.391Z</time>
      </trkpt>
      <trkpt lat="66.0665" lon="20.94159">
        <ele>82.598015</ele>
        <time>2020-09-22T10:44:36.383Z</time>
      </trkpt>
      <trkpt lat="66.06453" lon="20.94402">
        <ele>81.862205</ele>
        <time>2020-09-22T10:45:27.423Z</time>
      </trkpt>
      <trkpt lat="66.06255" lon="20.94836">
        <ele>72.360547</ele>
        <time>2020-09-22T10:46:05.376Z</time>
      </trkpt>
      <trkpt lat="66.06159" lon="20.95304">
        <ele>63.690207</ele>
        <time>2020-09-22T10:46:25.399Z</time>
      </trkpt>
      <trkpt lat="66.05991" lon="20.9573">
        <ele>60.350354</ele>
        <time>2020-09-22T10:46:58.392Z</time>
      </trkpt>
      <trkpt lat="66.05846" lon="20.96083">
        <ele>60.670908</ele>
        <time>2020-09-22T10:47:41.436Z</time>
      </trkpt>
      <trkpt lat="66.0569" lon="20.96458">
        <ele>64.79795</ele>
        <time>2020-09-22T10:48:32.389Z</time>
      </trkpt>
      <trkpt lat="66.05549" lon="20.9679">
        <ele>73.290921</ele>
        <time>2020-09-22T10:50:08.398Z</time>
      </trkpt>
      <trkpt lat="66.05383" lon="20.97139">
        <ele>70.007337</ele>
        <time>2020-09-22T10:50:59.380Z</time>
      </trkpt>
      <trkpt lat="66.05129" lon="20.97411">
        <ele>59.588728</ele>
        <time>2020-09-22T10:51:37.394Z</time>
      </trkpt>
      <trkpt lat="66.04885" lon="20.97671">
        <ele>54.32419</ele>
        <time>2020-09-22T10:52:17.429Z</time>
      </trkpt>
      <trkpt lat="66.0469" lon="20.9796">
        <ele>52.694995</ele>
        <time>2020-09-22T10:52:57.420Z</time>
      </trkpt>
      <trkpt lat="66.04507" lon="20.98191">
        <ele>53.321224</ele>
        <time>2020-09-22T10:53:37.387Z</time>
      </trkpt>
      <trkpt lat="66.04322" lon="20.98434">
        <ele>58.096267</ele>
        <time>2020-09-22T10:54:43.396Z</time>
      </trkpt>
      <trkpt lat="66.04145" lon="20.9868">
        <ele>62.956101</ele>
        <time>2020-09-22T10:55:44.414Z</time>
      </trkpt>
      <trkpt lat="66.03958" lon="20.98906">
        <ele>68.659671</ele>
        <time>2020-09-22T10:57:00.392Z</time>
      </trkpt>
      <trkpt lat="66.03745" lon="20.99084">
        <ele>74.278667</ele>
        <time>2020-09-22T10:57:59.390Z</time>
      </trkpt>
      <trkpt lat="66.03509" lon="20.99158">
        <ele>71.800369</ele>
        <time>2020-09-22T10:58:37.391Z</time>
      </trkpt>
      <trkpt lat="66.03321" lon="20.99295">
        <ele>77.548816</ele>
        <time>2020-09-22T11:00:02.407Z</time>
      </trkpt>
      <trkpt lat="66.03153" lon="20.9965">
        <ele>72.646259</ele>
        <time>2020-09-22T11:01:06.400Z</time>
      </trkpt>
      <trkpt lat="66.03037" lon="21.00111">
        <ele>72.804264</ele>
        <time>2020-09-22T11:01:50.411Z</time>
      </trkpt>
      <trkpt lat="66.02912" lon="21.00483">
        <ele>71.449084</ele>
        <time>2020-09-22T11:02:31.400Z</time>
      </trkpt>
      <trkpt lat="66.02756" lon="21.00753">
        <ele>68.602059</ele>
        <time>2020-09-22T11:03:09.411Z</time>
      </trkpt>
      <trkpt lat="66.0261" lon="21.01087">
        <ele>69.25136</ele>
        <time>2020-09-22T11:03:51.393Z</time>
      </trkpt>
      <trkpt lat="66.02532" lon="21.01576">
        <ele>65.431113</ele>
        <time>2020-09-22T11:04:33.413Z</time>
      </trkpt>
      <trkpt lat="66.02454" lon="21.02062">
        <ele>63.825968</ele>
        <time>2020-09-22T11:05:13.398Z</time>
      </trkpt>
      <trkpt lat="66.02347" lon="21.02498">
        <ele>67.352938</ele>
        <time>2020-09-22T11:05:53.412Z</time>
      </trkpt>
      <trkpt lat="66.02199" lon="21.02866">
        <ele>74.152906</ele>
        <time>2020-09-22T11:06:56.438Z</time>
      </trkpt>
      <trkpt lat="66.02033" lon="21.03174">
        <ele>79.508306</ele>
        <time>2020-09-22T11:08:11.410Z</time>
      </trkpt>
      <trkpt lat="66.01867" lon="21.03477">
        <ele>85.805403</ele>
        <time>2020-09-22T11:09:31.410Z</time>
      </trkpt>
      <trkpt lat="66.01712" lon="21.03791">
        <ele>86.865068</ele>
        <time>2020-09-22T11:10:36.401Z</time>
      </trkpt>
      <trkpt lat="66.01603" lon="21.04219">
        <ele>87.614395</ele>
        <time>2020-09-22T11:11:20.408Z</time>
      </trkpt>
      <trkpt lat="66.01495" lon="21.04676">
        <ele>90.705975</ele>
        <time>2020-09-22T11:12:28.382Z</time>
      </trkpt>
      <trkpt lat="66.0144" lon="21.05164">
        <ele>85.680931</ele>
        <time>2020-09-22T11:13:22.399Z</time>
      </trkpt>
      <trkpt lat="66.01441" lon="21.05854">
        <ele>74.16512</ele>
        <time>2020-09-22T11:14:02.407Z</time>
      </trkpt>
      <trkpt lat="66.0139" lon="21.0644">
        <ele>72.002468</ele>
        <time>2020-09-22T11:14:40.412Z</time>
      </trkpt>
      <trkpt lat="66.01326" lon="21.06931">
        <ele>75.574665</ele>
        <time>2020-09-22T11:15:21.394Z</time>
      </trkpt>
      <trkpt lat="66.01273" lon="21.07461">
        <ele>76.148767</ele>
        <time>2020-09-22T11:16:07.377Z</time>
      </trkpt>
      <trkpt lat="66.0122" lon="21.08071">
        <ele>69.719739</ele>
        <time>2020-09-22T11:16:47.395Z</time>
      </trkpt>
      <trkpt lat="66.01165" lon="21.0858">
        <ele>69.340465</ele>
        <time>2020-09-22T11:17:25.419Z</time>
      </trkpt>
      <trkpt lat="66.01077" lon="21.09042">
        <ele>73.0369</ele>
        <time>2020-09-22T11:18:05.413Z</time>
      </trkpt>
      <trkpt lat="66.00972" lon="21.0955">
        <ele>76.961717</ele>
        <time>2020-09-22T11:19:01.411Z</time>
      </trkpt>
      <trkpt lat="66.00871" lon="21.10035">
        <ele>83.610903</ele>
        <time>2020-09-22T11:19:56.432Z</time>
      </trkpt>
      <trkpt lat="66.00776" lon="21.10483">
        <ele>90.109055</ele>
        <time>2020-09-22T11:21:31.417Z</time>
      </trkpt>
      <trkpt lat="66.00682" lon="21.1093">
        <ele>91.475188</ele>
        <time>2020-09-22T11:22:40.429Z</time>
      </trkpt>
      <trkpt lat="66.00577" lon="21.11411">
        <ele>88.951086</ele>
        <time>2020-09-22T11:23:37.398Z</time>
      </trkpt>
      <trkpt lat="66.00497" lon="21.11876">
        <ele>89.124363</ele>
        <time>2020-09-22T11:24:34.412Z</time>
      </trkpt>
      <trkpt lat="66.0047" lon="21.12472">
        <ele>80.958502</ele>
        <time>2020-09-22T11:25:14.409Z</time>
      </trkpt>
      <trkpt lat="66.00426" lon="21.12934">
        <ele>79.486647</ele>
        <time>2020-09-22T11:25:52.392Z</time>
      </trkpt>
      <trkpt lat="66.00355" lon="21.13436">
        <ele>82.442203</ele>
        <time>2020-09-22T11:26:37.397Z</time>
      </trkpt>
      <trkpt lat="66.00281" lon="21.13991">
        <ele>88.338936</ele>
        <time>2020-09-22T11:27:33.393Z</time>
      </trkpt>
      <trkpt lat="66.00214" lon="21.14493">
        <ele>92.187084</ele>
        <time>2020-09-22T11:28:27.394Z</time>
      </trkpt>
      <trkpt lat="66.00149" lon="21.14953">
        <ele>98.488676</ele>
        <time>2020-09-22T11:29:42.397Z</time>
      </trkpt>
      <trkpt lat="66.00087" lon="21.15417">
        <ele>103.123315</ele>
        <time>2020-09-22T11:30:58.390Z</time>
      </trkpt>
      <trkpt lat="65.99987" lon="21.15833">
        <ele>112.499527</ele>
        <time>2020-09-22T11:32:17.403Z</time>
      </trkpt>
      <trkpt lat="65.99861" lon="21.16262">
        <ele>114.670475</ele>
        <time>2020-09-22T11:33:25.397Z</time>
      </trkpt>
      <trkpt lat="65.99787" lon="21.16821">
        <ele>101.48853</ele>
        <time>2020-09-22T11:34:14.410Z</time>
      </trkpt>
      <trkpt lat="65.99715" lon="21.17435">
        <ele>86.639474</ele>
        <time>2020-09-22T11:34:45.415Z</time>
      </trkpt>
      <trkpt lat="65.9964" lon="21.17925">
        <ele>86.933082</ele>
        <time>2020-09-22T11:35:18.395Z</time>
      </trkpt>
      <trkpt lat="65.99504" lon="21.18289">
        <ele>100.91601</ele>
        <time>2020-09-22T11:36:41.390Z</time>
      </trkpt>
      <trkpt lat="65.99328" lon="21.18725">
        <ele>93.972484</ele>
        <time>2020-09-22T11:37:42.409Z</time>
      </trkpt>
      <trkpt lat="65.99188" lon="21.19083">
        <ele>92.306182</ele>
        <time>2020-09-22T11:38:25.398Z</time>
      </trkpt>
      <trkpt lat="65.9906" lon="21.19646">
        <ele>85.224405</ele>
        <time>2020-09-22T11:38:59.404Z</time>
      </trkpt>
      <trkpt lat="65.98953" lon="21.20368">
        <ele>75.090305</ele>
        <time>2020-09-22T11:39:39.393Z</time>
      </trkpt>
      <trkpt lat="65.98748" lon="21.20762">
        <ele>68.129761</ele>
        <time>2020-09-22T11:40:19.411Z</time>
      </trkpt>
      <trkpt lat="65.98533" lon="21.20943">
        <ele>62.073887</ele>
        <time>2020-09-22T11:40:57.394Z</time>
      </trkpt>
      <trkpt lat="65.98321" lon="21.21123">
        <ele>69.029355</ele>
        <time>2020-09-22T11:41:53.429Z</time>
      </trkpt>
      <trkpt lat="65.98125" lon="21.21291">
        <ele>73.126922</ele>
        <time>2020-09-22T11:43:08.411Z</time>
      </trkpt>
      <trkpt lat="65.97928" lon="21.21454">
        <ele>80.217353</ele>
        <time>2020-09-22T11:44:28.413Z</time>
      </trkpt>
      <trkpt lat="65.97725" lon="21.21571">
        <ele>83.600712</ele>
        <time>2020-09-22T11:45:25.424Z</time>
      </trkpt>
      <trkpt lat="65.97533" lon="21.21675">
        <ele>83.694403</ele>
        <time>2020-09-22T11:46:04.426Z</time>
      </trkpt>
      <trkpt lat="65.97322" lon="21.21799">
        <ele>83.280869</ele>
        <time>2020-09-22T11:47:02.405Z</time>
      </trkpt>
      <trkpt lat="65.97078" lon="21.21902">
        <ele>72.281951</ele>
        <time>2020-09-22T11:47:42.422Z</time>
      </trkpt>
      <trkpt lat="65.96844" lon="21.21971">
        <ele>69.009562</ele>
        <time>2020-09-22T11:48:22.409Z</time>
      </trkpt>
      <trkpt lat="65.96631" lon="21.2207">
        <ele>68.442166</ele>
        <time>2020-09-22T11:49:16.452Z</time>
      </trkpt>
      <trkpt lat="65.96406" lon="21.22185">
        <ele>64.762462</ele>
        <time>2020-09-22T11:50:00.401Z</time>
      </trkpt>
      <trkpt lat="65.96179" lon="21.22297">
        <ele>60.067146</ele>
        <time>2020-09-22T11:50:46.398Z</time>
      </trkpt>
      <trkpt lat="65.95949" lon="21.22433">
        <ele>66.194221</ele>
        <time>2020-09-22T11:51:45.402Z</time>
      </trkpt>
      <trkpt lat="65.95751" lon="21.22651">
        <ele>65.522731</ele>
        <time>2020-09-22T11:52:36.405Z</time>
      </trkpt>
      <trkpt lat="65.95522" lon="21.22905">
        <ele>59.663271</ele>
        <time>2020-09-22T11:53:16.433Z</time>
      </trkpt>
      <trkpt lat="65.95324" lon="21.2312">
        <ele>56.85112</ele>
        <time>2020-09-22T12:09:38.421Z</time>
      </trkpt>
      <trkpt lat="65.95075" lon="21.23192">
        <ele>48.27182</ele>
        <time>2020-09-22T12:10:18.403Z</time>
      </trkpt>
      <trkpt lat="65.94882" lon="21.2316">
        <ele>50.912932</ele>
        <time>2020-09-22T12:10:58.386Z</time>
      </trkpt>
      <trkpt lat="65.94667" lon="21.23192">
        <ele>52.703652</ele>
        <time>2020-09-22T12:12:02.412Z</time>
      </trkpt>
      <trkpt lat="65.94467" lon="21.23396">
        <ele>54.840225</ele>
        <time>2020-09-22T12:13:05.417Z</time>
      </trkpt>
      <trkpt lat="65.94249" lon="21.2342">
        <ele>58.376361</ele>
        <time>2020-09-22T12:14:05.439Z</time>
      </trkpt>
      <trkpt lat="65.94034" lon="21.23435">
        <ele>58.33828</ele>
        <time>2020-09-22T12:14:54.439Z</time>
      </trkpt>
      <trkpt lat="65.93836" lon="21.23516">
        <ele>57.344405</ele>
        <time>2020-09-22T12:15:38.435Z</time>
      </trkpt>
      <trkpt lat="65.93639" lon="21.23904">
        <ele>53.088377</ele>
        <time>2020-09-22T12:16:18.427Z</time>
      </trkpt>
      <trkpt lat="65.93463" lon="21.24346">
        <ele>50.338434</ele>
        <time>2020-09-22T12:16:58.413Z</time>
      </trkpt>
      <trkpt lat="65.93272" lon="21.24767">
        <ele>47.146462</ele>
        <time>2020-09-22T12:17:38.420Z</time>
      </trkpt>
      <trkpt lat="65.93089" lon="21.25041">
        <ele>45.630521</ele>
        <time>2020-09-22T12:18:25.396Z</time>
      </trkpt>
      <trkpt lat="65.92907" lon="21.2531">
        <ele>46.986917</ele>
        <time>2020-09-22T12:19:12.423Z</time>
      </trkpt>
      <trkpt lat="65.92715" lon="21.25592">
        <ele>47.899764</ele>
        <time>2020-09-22T12:20:05.435Z</time>
      </trkpt>
      <trkpt lat="65.92521" lon="21.25872">
        <ele>47.366882</ele>
        <time>2020-09-22T12:20:56.405Z</time>
      </trkpt>
      <trkpt lat="65.92357" lon="21.26132">
        <ele>47.649342</ele>
        <time>2020-09-22T12:21:36.412Z</time>
      </trkpt>
      <trkpt lat="65.92191" lon="21.26411">
        <ele>47.251133</ele>
        <time>2020-09-22T12:22:16.444Z</time>
      </trkpt>
      <trkpt lat="65.92016" lon="21.26616">
        <ele>45.445042</ele>
        <time>2020-09-22T12:22:56.437Z</time>
      </trkpt>
      <trkpt lat="65.91816" lon="21.26798">
        <ele>44.024991</ele>
        <time>2020-09-22T12:23:36.412Z</time>
      </trkpt>
      <trkpt lat="65.91643" lon="21.27052">
        <ele>45.139507</ele>
        <time>2020-09-22T12:24:16.403Z</time>
      </trkpt>
      <trkpt lat="65.91508" lon="21.27369">
        <ele>46.603852</ele>
        <time>2020-09-22T12:24:54.451Z</time>
      </trkpt>
      <trkpt lat="65.91347" lon="21.27744">
        <ele>48.424182</ele>
        <time>2020-09-22T12:25:41.422Z</time>
      </trkpt>
      <trkpt lat="65.91181" lon="21.28136">
        <ele>50.726485</ele>
        <time>2020-09-22T12:26:36.420Z</time>
      </trkpt>
      <trkpt lat="65.91022" lon="21.28507">
        <ele>49.127235</ele>
        <time>2020-09-22T12:27:24.419Z</time>
      </trkpt>
      <trkpt lat="65.90881" lon="21.28887">
        <ele>48.805127</ele>
        <time>2020-09-22T12:28:09.427Z</time>
      </trkpt>
      <trkpt lat="65.90809" lon="21.29423">
        <ele>47.588354</ele>
        <time>2020-09-22T12:28:55.395Z</time>
      </trkpt>
      <trkpt lat="65.90709" lon="21.30106">
        <ele>41.6972</ele>
        <time>2020-09-22T12:29:35.416Z</time>
      </trkpt>
      <trkpt lat="65.90603" lon="21.3055">
        <ele>43.113159</ele>
        <time>2020-09-22T12:30:17.422Z</time>
      </trkpt>
      <trkpt lat="65.90496" lon="21.31003">
        <ele>47.020161</ele>
        <time>2020-09-22T12:31:14.440Z</time>
      </trkpt>
      <trkpt lat="65.90367" lon="21.3135">
        <ele>51.158545</ele>
        <time>2020-09-22T12:32:18.444Z</time>
      </trkpt>
      <trkpt lat="65.90184" lon="21.31655">
        <ele>50.301903</ele>
        <time>2020-09-22T12:33:18.401Z</time>
      </trkpt>
      <trkpt lat="65.9" lon="21.31958">
        <ele>47.857321</ele>
        <time>2020-09-22T12:34:02.426Z</time>
      </trkpt>
      <trkpt lat="65.89843" lon="21.32307">
        <ele>47.591777</ele>
        <time>2020-09-22T12:34:42.399Z</time>
      </trkpt>
      <trkpt lat="65.89682" lon="21.32704">
        <ele>44.743184</ele>
        <time>2020-09-22T12:35:20.437Z</time>
      </trkpt>
      <trkpt lat="65.89524" lon="21.33074">
        <ele>42.497881</ele>
        <time>2020-09-22T12:36:02.402Z</time>
      </trkpt>
      <trkpt lat="65.89349" lon="21.3341">
        <ele>45.043569</ele>
        <time>2020-09-22T12:36:53.410Z</time>
      </trkpt>
      <trkpt lat="65.89223" lon="21.33827">
        <ele>48.627567</ele>
        <time>2020-09-22T12:37:39.410Z</time>
      </trkpt>
      <trkpt lat="65.89131" lon="21.3432">
        <ele>53.050727</ele>
        <time>2020-09-22T12:38:36.461Z</time>
      </trkpt>
      <trkpt lat="65.89035" lon="21.34822">
        <ele>54.265368</ele>
        <time>2020-09-22T12:39:36.398Z</time>
      </trkpt>
      <trkpt lat="65.88924" lon="21.35303">
        <ele>59.226945</ele>
        <time>2020-09-22T12:40:36.432Z</time>
      </trkpt>
      <trkpt lat="65.88815" lon="21.35712">
        <ele>63.463744</ele>
        <time>2020-09-22T12:41:36.408Z</time>
      </trkpt>
      <trkpt lat="65.88671" lon="21.36109">
        <ele>60.505107</ele>
        <time>2020-09-22T12:42:33.433Z</time>
      </trkpt>
      <trkpt lat="65.88523" lon="21.36511">
        <ele>56.572857</ele>
        <time>2020-09-22T12:43:16.399Z</time>
      </trkpt>
      <trkpt lat="65.88362" lon="21.36942">
        <ele>55.814902</ele>
        <time>2020-09-22T12:43:56.416Z</time>
      </trkpt>
      <trkpt lat="65.88212" lon="21.37303">
        <ele>63.817986</ele>
        <time>2020-09-22T12:44:55.406Z</time>
      </trkpt>
      <trkpt lat="65.88043" lon="21.37564">
        <ele>70.195191</ele>
        <time>2020-09-22T12:45:54.413Z</time>
      </trkpt>
      <trkpt lat="65.87817" lon="21.37764">
        <ele>66.232307</ele>
        <time>2020-09-22T12:46:34.402Z</time>
      </trkpt>
      <trkpt lat="65.87592" lon="21.3794">
        <ele>60.290982</ele>
        <time>2020-09-22T12:47:14.413Z</time>
      </trkpt>
      <trkpt lat="65.87396" lon="21.38032">
        <ele>59.733476</ele>
        <time>2020-09-22T12:47:55.418Z</time>
      </trkpt>
      <trkpt lat="65.87185" lon="21.38058">
        <ele>65.717427</ele>
        <time>2020-09-22T12:48:47.394Z</time>
      </trkpt>
      <trkpt lat="65.87001" lon="21.38187">
        <ele>69.901256</ele>
        <time>2020-09-22T12:49:58.438Z</time>
      </trkpt>
      <trkpt lat="65.86815" lon="21.38446">
        <ele>71.73534</ele>
        <time>2020-09-22T12:50:49.418Z</time>
      </trkpt>
      <trkpt lat="65.86602" lon="21.38826">
        <ele>61.525476</ele>
        <time>2020-09-22T12:51:29.435Z</time>
      </trkpt>
      <trkpt lat="65.86431" lon="21.392">
        <ele>57.114147</ele>
        <time>2020-09-22T12:52:03.452Z</time>
      </trkpt>
      <trkpt lat="65.86279" lon="21.39476">
        <ele>62.378619</ele>
        <time>2020-09-22T12:53:01.440Z</time>
      </trkpt>
      <trkpt lat="65.86093" lon="21.39805">
        <ele>61.977476</ele>
        <time>2020-09-22T12:54:02.426Z</time>
      </trkpt>
      <trkpt lat="65.85992" lon="21.40259">
        <ele>57.724321</ele>
        <time>2020-09-22T12:54:46.432Z</time>
      </trkpt>
      <trkpt lat="65.85924" lon="21.40839">
        <ele>53.403333</ele>
        <time>2020-09-22T12:55:26.414Z</time>
      </trkpt>
      <trkpt lat="65.8584" lon="21.41334">
        <ele>52.718974</ele>
        <time>2020-09-22T12:56:04.417Z</time>
      </trkpt>
      <trkpt lat="65.85727" lon="21.41881">
        <ele>45.020089</ele>
        <time>2020-09-22T12:56:44.424Z</time>
      </trkpt>
      <trkpt lat="65.85619" lon="21.42384">
        <ele>47.262856</ele>
        <time>2020-09-22T12:57:28.434Z</time>
      </trkpt>
      <trkpt lat="65.85483" lon="21.42839">
        <ele>49.687278</ele>
        <time>2020-09-22T12:58:22.461Z</time>
      </trkpt>
      <trkpt lat="65.85327" lon="21.4329">
        <ele>48.328958</ele>
        <time>2020-09-22T12:59:17.440Z</time>
      </trkpt>
      <trkpt lat="65.8521" lon="21.43747">
        <ele>47.399349</ele>
        <time>2020-09-22T13:00:07.419Z</time>
      </trkpt>
      <trkpt lat="65.85116" lon="21.4417">
        <ele>47.487686</ele>
        <time>2020-09-22T13:00:50.449Z</time>
      </trkpt>
      <trkpt lat="65.85017" lon="21.44725">
        <ele>52.698438</ele>
        <time>2020-09-22T13:01:47.434Z</time>
      </trkpt>
      <trkpt lat="65.84945" lon="21.45252">
        <ele>53.884869</ele>
        <time>2020-09-22T13:02:44.439Z</time>
      </trkpt>
      <trkpt lat="65.84893" lon="21.45751">
        <ele>58.879928</ele>
        <time>2020-09-22T13:03:41.429Z</time>
      </trkpt>
      <trkpt lat="65.84854" lon="21.4628">
        <ele>60.840496</ele>
        <time>2020-09-22T13:04:32.453Z</time>
      </trkpt>
      <trkpt lat="65.84791" lon="21.468">
        <ele>58.820601</ele>
        <time>2020-09-22T13:05:12.419Z</time>
      </trkpt>
      <trkpt lat="65.84686" lon="21.47232">
        <ele>59.418582</ele>
        <time>2020-09-22T13:05:52.418Z</time>
      </trkpt>
      <trkpt lat="65.84548" lon="21.47585">
        <ele>57.547475</ele>
        <time>2020-09-22T13:06:35.437Z</time>
      </trkpt>
      <trkpt lat="65.84351" lon="21.47881">
        <ele>61.539765</ele>
        <time>2020-09-22T13:07:35.421Z</time>
      </trkpt>
      <trkpt lat="65.84154" lon="21.48157">
        <ele>62.066564</ele>
        <time>2020-09-22T13:08:30.439Z</time>
      </trkpt>
      <trkpt lat="65.83985" lon="21.48444">
        <ele>59.558971</ele>
        <time>2020-09-22T13:09:10.477Z</time>
      </trkpt>
      <trkpt lat="65.83829" lon="21.48768">
        <ele>58.547957</ele>
        <time>2020-09-22T13:09:51.431Z</time>
      </trkpt>
      <trkpt lat="65.83699" lon="21.49066">
        <ele>60.826568</ele>
        <time>2020-09-22T13:10:29.423Z</time>
      </trkpt>
      <trkpt lat="65.83546" lon="21.49431">
        <ele>56.837859</ele>
        <time>2020-09-22T13:11:09.412Z</time>
      </trkpt>
      <trkpt lat="65.83384" lon="21.4984">
        <ele>54.579434</ele>
        <time>2020-09-22T13:11:49.436Z</time>
      </trkpt>
      <trkpt lat="65.83216" lon="21.50309">
        <ele>54.105841</ele>
        <time>2020-09-22T13:12:29.453Z</time>
      </trkpt>
      <trkpt lat="65.83068" lon="21.50723">
        <ele>52.683454</ele>
        <time>2020-09-22T13:13:07.436Z</time>
      </trkpt>
      <trkpt lat="65.82916" lon="21.51158">
        <ele>50.467071</ele>
        <time>2020-09-22T13:13:47.457Z</time>
      </trkpt>
      <trkpt lat="65.82774" lon="21.51557">
        <ele>48.537079</ele>
        <time>2020-09-22T13:14:27.421Z</time>
      </trkpt>
      <trkpt lat="65.82637" lon="21.51943">
        <ele>44.688835</ele>
        <time>2020-09-22T13:15:07.417Z</time>
      </trkpt>
      <trkpt lat="65.82516" lon="21.52295">
        <ele>44.130893</ele>
        <time>2020-09-22T13:15:45.446Z</time>
      </trkpt>
      <trkpt lat="65.82438" lon="21.52724">
        <ele>47.081915</ele>
        <time>2020-09-22T13:16:25.441Z</time>
      </trkpt>
      <trkpt lat="65.82404" lon="21.53188">
        <ele>47.9203</ele>
        <time>2020-09-22T13:17:05.420Z</time>
      </trkpt>
      <trkpt lat="65.82429" lon="21.53675">
        <ele>51.130068</ele>
        <time>2020-09-22T13:17:45.440Z</time>
      </trkpt>
      <trkpt lat="65.82487" lon="21.54139">
        <ele>48.732975</ele>
        <time>2020-09-22T13:18:23.441Z</time>
      </trkpt>
      <trkpt lat="65.82551" lon="21.54635">
        <ele>43.252225</ele>
        <time>2020-09-22T13:19:03.424Z</time>
      </trkpt>
      <trkpt lat="65.82585" lon="21.5514">
        <ele>46.579824</ele>
        <time>2020-09-22T13:19:43.446Z</time>
      </trkpt>
      <trkpt lat="65.82505" lon="21.55555">
        <ele>48.910237</ele>
        <time>2020-09-22T13:20:24.432Z</time>
      </trkpt>
      <trkpt lat="65.82333" lon="21.55826">
        <ele>49.869665</ele>
        <time>2020-09-22T13:21:30.433Z</time>
      </trkpt>
      <trkpt lat="65.82167" lon="21.56105">
        <ele>48.019416</ele>
        <time>2020-09-22T13:22:11.442Z</time>
      </trkpt>
      <trkpt lat="65.81983" lon="21.56412">
        <ele>52.069566</ele>
        <time>2020-09-22T13:23:11.448Z</time>
      </trkpt>
      <trkpt lat="65.81811" lon="21.56699">
        <ele>55.354936</ele>
        <time>2020-09-22T13:24:11.452Z</time>
      </trkpt>
      <trkpt lat="65.81705" lon="21.57013">
        <ele>64.060255</ele>
        <time>2020-09-22T13:25:15.442Z</time>
      </trkpt>
      <trkpt lat="65.8166" lon="21.57467">
        <ele>74.341316</ele>
        <time>2020-09-22T13:26:43.434Z</time>
      </trkpt>
      <trkpt lat="65.8162" lon="21.57957">
        <ele>76.047852</ele>
        <time>2020-09-22T13:27:44.450Z</time>
      </trkpt>
      <trkpt lat="65.81672" lon="21.58449">
        <ele>71.518495</ele>
        <time>2020-09-22T13:28:41.474Z</time>
      </trkpt>
      <trkpt lat="65.81765" lon="21.58926">
        <ele>69.562193</ele>
        <time>2020-09-22T13:29:29.437Z</time>
      </trkpt>
      <trkpt lat="65.81836" lon="21.59393">
        <ele>67.794345</ele>
        <time>2020-09-22T13:30:08.428Z</time>
      </trkpt>
      <trkpt lat="65.81897" lon="21.59904">
        <ele>67.186499</ele>
        <time>2020-09-22T13:30:52.430Z</time>
      </trkpt>
      <trkpt lat="65.81983" lon="21.60364">
        <ele>66.335219</ele>
        <time>2020-09-22T13:31:33.425Z</time>
      </trkpt>
      <trkpt lat="65.82103" lon="21.60846">
        <ele>59.851153</ele>
        <time>2020-09-22T13:32:18.436Z</time>
      </trkpt>
      <trkpt lat="65.82256" lon="21.6144">
        <ele>50.230906</ele>
        <time>2020-09-22T13:32:58.423Z</time>
      </trkpt>
      <trkpt lat="65.82428" lon="21.6186">
        <ele>39.920137</ele>
        <time>2020-09-22T13:33:36.423Z</time>
      </trkpt>
      <trkpt lat="65.82574" lon="21.62291">
        <ele>41.63402</ele>
        <time>2020-09-22T13:34:25.426Z</time>
      </trkpt>
      <trkpt lat="65.82689" lon="21.62795">
        <ele>44.402413</ele>
        <time>2020-09-22T13:35:21.422Z</time>
      </trkpt>
      <trkpt lat="65.82709" lon="21.63332">
        <ele>50.272729</ele>
        <time>2020-09-22T13:36:17.419Z</time>
      </trkpt>
      <trkpt lat="65.82647" lon="21.63776">
        <ele>56.786107</ele>
        <time>2020-09-22T13:37:15.429Z</time>
      </trkpt>
      <trkpt lat="65.82558" lon="21.64239">
        <ele>55.101325</ele>
        <time>2020-09-22T13:38:02.423Z</time>
      </trkpt>
      <trkpt lat="65.82452" lon="21.64631">
        <ele>51.707129</ele>
        <time>2020-09-22T13:38:43.450Z</time>
      </trkpt>
      <trkpt lat="65.82324" lon="21.65033">
        <ele>49.095151</ele>
        <time>2020-09-22T13:39:26.417Z</time>
      </trkpt>
      <trkpt lat="65.82197" lon="21.65413">
        <ele>49.64538</ele>
        <time>2020-09-22T13:40:16.424Z</time>
      </trkpt>
      <trkpt lat="65.82049" lon="21.65846">
        <ele>53.150689</ele>
        <time>2020-09-22T13:41:14.436Z</time>
      </trkpt>
      <trkpt lat="65.81909" lon="21.66245">
        <ele>46.17305</ele>
        <time>2020-09-22T13:42:03.435Z</time>
      </trkpt>
      <trkpt lat="65.81909" lon="21.6665">
        <ele>44.754578</ele>
        <time>2020-09-22T13:42:54.416Z</time>
      </trkpt>
      <trkpt lat="65.81933" lon="21.67143">
        <ele>47.21598</ele>
        <time>2020-09-22T13:43:37.424Z</time>
      </trkpt>
      <trkpt lat="65.82054" lon="21.67518">
        <ele>46.970114</ele>
        <time>2020-09-22T13:44:30.416Z</time>
      </trkpt>
      <trkpt lat="65.822" lon="21.67847">
        <ele>45.584048</ele>
        <time>2020-09-22T13:45:31.425Z</time>
      </trkpt>
      <trkpt lat="65.82352" lon="21.67718">
        <ele>49.332245</ele>
        <time>2020-09-22T13:46:38.420Z</time>
      </trkpt>
      <trkpt lat="65.82555" lon="21.6771">
        <ele>54.187133</ele>
        <time>2020-09-22T13:47:44.463Z</time>
      </trkpt>
      <trkpt lat="65.82744" lon="21.67695">
        <ele>44.406281</ele>
        <time>2020-09-22T13:48:27.440Z</time>
      </trkpt>
      <trkpt lat="65.82885" lon="21.67583">
        <ele>34.493946</ele>
        <time>2020-09-22T13:49:19.433Z</time>
      </trkpt>
    </trkseg>
  </trk>
</gpx>